aviador You're here:

KSPW Decoded Metar

SPENCER in IA, USA
Report Time2017-06-29 06:53:00
UTC Time2017-06-29 07:09:43
Flight Rules vfr VFR
Wind350° at 05 kt
W.Decomp.*RWY 36: 4.8 kt HW 1.3 kt LCW
RWY 30: 3.5 kt HW 3.5 kt RCW
W.Rank350° ranks 4
Current wind is below 350° avg. (11.0)
Visibility9999 m
Phenomena:N/A
Clouds:N/A
Expected CloudBase > 1,200 ft AGL from Temp-Dew spread
CeilingNone
Temp19°C (ISA +7)
Dew Point16°C (83% RH)
QNH1007 hPa
Density Alt2,549 ft
Elevation1,322 ft
Report Wrong Elevation
Raw Report
METAR KSPW 290653Z AUTO 35005KT 10SM CLR 19/16 A2973 RMK AO2 SLP057
T01940161 $=

Extra information for KSPW:More info

Metar Taf Metar & Taf Last 4 Metars F.Rules Stats Wind Profile Meteogram Temp Stats Airport Information Weather charts Add Link Nearby VenuesMetar ALERT Operation Metar Decoded Social comments

AIRNAV info for KSPW